sensor_id;sensor_type;location;lat;lon;timestamp;P1;durP1;ratioP1;P2;durP2;ratioP2
6564;SDS011;3316;44.118;27.258;2023-05-16T00:00:18;7.70;;;5.90;;
6564;SDS011;3316;44.118;27.258;2023-05-16T00:02:44;10.50;;;5.80;;
6564;SDS011;3316;44.118;27.258;2023-05-16T00:05:09;6.33;;;5.37;;
6564;SDS011;3316;44.118;27.258;2023-05-16T00:07:38;7.50;;;5.70;;
6564;SDS011;3316;44.118;27.258;2023-05-16T00:10:06;7.77;;;5.50;;
6564;SDS011;3316;44.118;27.258;2023-05-16T00:12:32;7.17;;;5.70;;
6564;SDS011;3316;44.118;27.258;2023-05-16T00:14:58;6.33;;;5.10;;
6564;SDS011;3316;44.118;27.258;2023-05-16T00:17:23;19.67;;;5.63;;
6564;SDS011;3316;44.118;27.258;2023-05-16T00:19:52;9.20;;;5.97;;
6564;SDS011;3316;44.118;27.258;2023-05-16T00:22:22;9.37;;;5.77;;
6564;SDS011;3316;44.118;27.258;2023-05-16T00:24:48;8.83;;;5.47;;
6564;SDS011;3316;44.118;27.258;2023-05-16T00:27:13;10.07;;;6.40;;
6564;SDS011;3316;44.118;27.258;2023-05-16T00:29:39;9.60;;;4.83;;
6564;SDS011;3316;44.118;27.258;2023-05-16T00:32:04;9.83;;;6.37;;
6564;SDS011;3316;44.118;27.258;2023-05-16T00:34:32;9.60;;;6.13;;
6564;SDS011;3316;44.118;27.258;2023-05-16T00:36:58;11.43;;;6.17;;
6564;SDS011;3316;44.118;27.258;2023-05-16T00:39:23;8.37;;;5.57;;
6564;SDS011;3316;44.118;27.258;2023-05-16T00:41:49;7.67;;;5.50;;
6564;SDS011;3316;44.118;27.258;2023-05-16T00:44:15;13.30;;;6.80;;
6564;SDS011;3316;44.118;27.258;2023-05-16T00:46:40;10.73;;;6.43;;
6564;SDS011;3316;44.118;27.258;2023-05-16T00:49:06;8.03;;;6.23;;
6564;SDS011;3316;44.118;27.258;2023-05-16T00:51:32;10.43;;;6.03;;
6564;SDS011;3316;44.118;27.258;2023-05-16T00:53:58;10.53;;;6.30;;
6564;SDS011;3316;44.118;27.258;2023-05-16T00:56:24;8.57;;;5.67;;
6564;SDS011;3316;44.118;27.258;2023-05-16T00:58:50;9.00;;;5.97;;
6564;SDS011;3316;44.118;27.258;2023-05-16T01:01:15;7.53;;;4.87;;
6564;SDS011;3316;44.118;27.258;2023-05-16T01:03:44;9.50;;;6.80;;
6564;SDS011;3316;44.118;27.258;2023-05-16T01:06:10;10.63;;;5.07;;
6564;SDS011;3316;44.118;27.258;2023-05-16T01:08:36;11.40;;;6.20;;
6564;SDS011;3316;44.118;27.258;2023-05-16T01:13:47;9.77;;;6.57;;
6564;SDS011;3316;44.118;27.258;2023-05-16T01:16:29;11.83;;;6.43;;
6564;SDS011;3316;44.118;27.258;2023-05-16T01:19:16;7.67;;;6.00;;
6564;SDS011;3316;44.118;27.258;2023-05-16T01:21:47;6.57;;;5.73;;
6564;SDS011;3316;44.118;27.258;2023-05-16T01:24:39;9.83;;;6.40;;
6564;SDS011;3316;44.118;27.258;2023-05-16T01:27:26;6.97;;;6.00;;
6564;SDS011;3316;44.118;27.258;2023-05-16T01:29:56;10.27;;;6.60;;
6564;SDS011;3316;44.118;27.258;2023-05-16T01:32:22;10.23;;;5.83;;
6564;SDS011;3316;44.118;27.258;2023-05-16T01:34:50;10.57;;;6.30;;
6564;SDS011;3316;44.118;27.258;2023-05-16T01:37:35;9.27;;;6.33;;
6564;SDS011;3316;44.118;27.258;2023-05-16T01:42:52;7.83;;;6.37;;
6564;SDS011;3316;44.118;27.258;2023-05-16T01:45:25;8.70;;;5.87;;
6564;SDS011;3316;44.118;27.258;2023-05-16T01:48:06;9.17;;;6.00;;
6564;SDS011;3316;44.118;27.258;2023-05-16T01:50:35;11.53;;;5.73;;
6564;SDS011;3316;44.118;27.258;2023-05-16T01:53:07;9.40;;;5.90;;
6564;SDS011;3316;44.118;27.258;2023-05-16T01:55:44;11.67;;;7.50;;
6564;SDS011;3316;44.118;27.258;2023-05-16T01:58:11;11.83;;;6.87;;
6564;SDS011;3316;44.118;27.258;2023-05-16T02:00:39;14.63;;;7.83;;
6564;SDS011;3316;44.118;27.258;2023-05-16T02:03:05;11.37;;;6.47;;
6564;SDS011;3316;44.118;27.258;2023-05-16T02:05:31;11.33;;;5.77;;
6564;SDS011;3316;44.118;27.258;2023-05-16T02:07:57;10.07;;;5.70;;
6564;SDS011;3316;44.118;27.258;2023-05-16T02:10:23;8.50;;;6.17;;
6564;SDS011;3316;44.118;27.258;2023-05-16T02:12:49;9.70;;;6.20;;
6564;SDS011;3316;44.118;27.258;2023-05-16T02:15:15;7.57;;;5.60;;
6564;SDS011;3316;44.118;27.258;2023-05-16T02:17:41;9.50;;;6.03;;
6564;SDS011;3316;44.118;27.258;2023-05-16T02:20:06;6.43;;;5.53;;
6564;SDS011;3316;44.118;27.258;2023-05-16T02:22:36;7.60;;;5.43;;
6564;SDS011;3316;44.118;27.258;2023-05-16T02:25:03;6.43;;;5.30;;
6564;SDS011;3316;44.118;27.258;2023-05-16T02:27:29;9.67;;;5.20;;
6564;SDS011;3316;44.118;27.258;2023-05-16T02:29:55;7.03;;;5.27;;
6564;SDS011;3316;44.118;27.258;2023-05-16T02:32:20;7.07;;;5.07;;
6564;SDS011;3316;44.118;27.258;2023-05-16T02:34:46;9.07;;;6.03;;
6564;SDS011;3316;44.118;27.258;2023-05-16T02:37:11;12.63;;;5.97;;
6564;SDS011;3316;44.118;27.258;2023-05-16T02:39:37;9.87;;;6.03;;
6564;SDS011;3316;44.118;27.258;2023-05-16T02:42:03;7.17;;;5.90;;
6564;SDS011;3316;44.118;27.258;2023-05-16T02:44:29;8.30;;;6.17;;
6564;SDS011;3316;44.118;27.258;2023-05-16T02:46:54;6.60;;;4.80;;
6564;SDS011;3316;44.118;27.258;2023-05-16T02:49:19;11.37;;;6.67;;
6564;SDS011;3316;44.118;27.258;2023-05-16T02:51:45;8.73;;;6.53;;
6564;SDS011;3316;44.118;27.258;2023-05-16T02:54:11;10.43;;;5.57;;
6564;SDS011;3316;44.118;27.258;2023-05-16T02:56:36;10.30;;;5.13;;
6564;SDS011;3316;44.118;27.258;2023-05-16T02:59:02;11.57;;;4.97;;
6564;SDS011;3316;44.118;27.258;2023-05-16T03:01:28;6.60;;;5.27;;
6564;SDS011;3316;44.118;27.258;2023-05-16T03:03:55;7.67;;;6.00;;
6564;SDS011;3316;44.118;27.258;2023-05-16T03:06:20;11.97;;;6.03;;
6564;SDS011;3316;44.118;27.258;2023-05-16T03:08:46;9.00;;;6.43;;
6564;SDS011;3316;44.118;27.258;2023-05-16T03:11:12;18.10;;;6.33;;
6564;SDS011;3316;44.118;27.258;2023-05-16T03:13:38;7.97;;;5.43;;
6564;SDS011;3316;44.118;27.258;2023-05-16T03:16:04;13.57;;;5.50;;
6564;SDS011;3316;44.118;27.258;2023-05-16T03:18:30;13.20;;;6.00;;
6564;SDS011;3316;44.118;27.258;2023-05-16T03:20:55;8.63;;;5.40;;
6564;SDS011;3316;44.118;27.258;2023-05-16T03:23:22;7.60;;;6.30;;
6564;SDS011;3316;44.118;27.258;2023-05-16T03:25:47;10.80;;;4.90;;
6564;SDS011;3316;44.118;27.258;2023-05-16T03:28:14;5.90;;;5.00;;
6564;SDS011;3316;44.118;27.258;2023-05-16T03:30:40;11.37;;;6.60;;
6564;SDS011;3316;44.118;27.258;2023-05-16T03:33:06;7.23;;;6.10;;
6564;SDS011;3316;44.118;27.258;2023-05-16T03:35:31;6.73;;;5.40;;
6564;SDS011;3316;44.118;27.258;2023-05-16T03:37:58;8.10;;;5.80;;
6564;SDS011;3316;44.118;27.258;2023-05-16T03:40:24;9.43;;;5.97;;
6564;SDS011;3316;44.118;27.258;2023-05-16T03:42:50;10.40;;;6.10;;
6564;SDS011;3316;44.118;27.258;2023-05-16T03:45:15;12.40;;;6.23;;
6564;SDS011;3316;44.118;27.258;2023-05-16T03:47:41;8.23;;;5.50;;
6564;SDS011;3316;44.118;27.258;2023-05-16T03:50:07;11.03;;;6.00;;
6564;SDS011;3316;44.118;27.258;2023-05-16T03:52:33;8.30;;;5.50;;
6564;SDS011;3316;44.118;27.258;2023-05-16T03:54:59;9.87;;;6.13;;
6564;SDS011;3316;44.118;27.258;2023-05-16T03:57:26;14.27;;;6.47;;
6564;SDS011;3316;44.118;27.258;2023-05-16T03:59:51;12.63;;;6.20;;
6564;SDS011;3316;44.118;27.258;2023-05-16T04:02:17;13.33;;;6.40;;
6564;SDS011;3316;44.118;27.258;2023-05-16T04:04:42;12.00;;;6.67;;
6564;SDS011;3316;44.118;27.258;2023-05-16T04:07:08;7.40;;;5.73;;
6564;SDS011;3316;44.118;27.258;2023-05-16T04:09:33;12.33;;;5.80;;
6564;SDS011;3316;44.118;27.258;2023-05-16T04:11:58;12.77;;;6.20;;
6564;SDS011;3316;44.118;27.258;2023-05-16T04:14:26;11.67;;;5.70;;
6564;SDS011;3316;44.118;27.258;2023-05-16T04:16:51;11.50;;;6.30;;
6564;SDS011;3316;44.118;27.258;2023-05-16T04:19:17;8.13;;;5.63;;
6564;SDS011;3316;44.118;27.258;2023-05-16T04:21:42;8.93;;;5.53;;
6564;SDS011;3316;44.118;27.258;2023-05-16T04:24:07;9.87;;;5.80;;
6564;SDS011;3316;44.118;27.258;2023-05-16T04:26:33;14.43;;;5.90;;
6564;SDS011;3316;44.118;27.258;2023-05-16T04:28:58;9.00;;;5.37;;
6564;SDS011;3316;44.118;27.258;2023-05-16T04:31:24;14.40;;;6.30;;
6564;SDS011;3316;44.118;27.258;2023-05-16T04:33:50;8.27;;;4.67;;
6564;SDS011;3316;44.118;27.258;2023-05-16T04:36:17;7.80;;;5.30;;
6564;SDS011;3316;44.118;27.258;2023-05-16T04:38:42;11.20;;;6.37;;
6564;SDS011;3316;44.118;27.258;2023-05-16T04:41:08;12.07;;;5.37;;
6564;SDS011;3316;44.118;27.258;2023-05-16T04:43:33;10.90;;;5.97;;
6564;SDS011;3316;44.118;27.258;2023-05-16T04:45:59;10.63;;;5.80;;
6564;SDS011;3316;44.118;27.258;2023-05-16T04:48:25;16.20;;;6.60;;
6564;SDS011;3316;44.118;27.258;2023-05-16T04:50:50;12.73;;;5.83;;
6564;SDS011;3316;44.118;27.258;2023-05-16T04:53:16;13.17;;;5.63;;
6564;SDS011;3316;44.118;27.258;2023-05-16T04:55:41;10.43;;;5.53;;
6564;SDS011;3316;44.118;27.258;2023-05-16T04:58:07;9.97;;;5.70;;
6564;SDS011;3316;44.118;27.258;2023-05-16T05:00:32;7.30;;;5.20;;
6564;SDS011;3316;44.118;27.258;2023-05-16T05:02:58;7.83;;;5.33;;
6564;SDS011;3316;44.118;27.258;2023-05-16T05:05:24;13.37;;;6.13;;
6564;SDS011;3316;44.118;27.258;2023-05-16T05:07:49;10.60;;;5.00;;
6564;SDS011;3316;44.118;27.258;2023-05-16T05:10:15;9.20;;;5.33;;
6564;SDS011;3316;44.118;27.258;2023-05-16T05:12:40;7.33;;;4.67;;
6564;SDS011;3316;44.118;27.258;2023-05-16T05:15:06;11.37;;;6.03;;
6564;SDS011;3316;44.118;27.258;2023-05-16T05:17:32;10.53;;;6.70;;
6564;SDS011;3316;44.118;27.258;2023-05-16T05:19:57;9.73;;;6.37;;
6564;SDS011;3316;44.118;27.258;2023-05-16T05:22:23;10.27;;;5.57;;
6564;SDS011;3316;44.118;27.258;2023-05-16T05:24:48;6.73;;;5.47;;
6564;SDS011;3316;44.118;27.258;2023-05-16T05:27:14;12.53;;;6.30;;
6564;SDS011;3316;44.118;27.258;2023-05-16T05:29:40;11.47;;;6.07;;
6564;SDS011;3316;44.118;27.258;2023-05-16T05:32:05;6.47;;;4.07;;
6564;SDS011;3316;44.118;27.258;2023-05-16T05:34:32;12.20;;;6.33;;
6564;SDS011;3316;44.118;27.258;2023-05-16T05:36:57;8.60;;;5.50;;
6564;SDS011;3316;44.118;27.258;2023-05-16T05:39:23;6.67;;;5.13;;
6564;SDS011;3316;44.118;27.258;2023-05-16T05:41:49;10.33;;;5.93;;
6564;SDS011;3316;44.118;27.258;2023-05-16T05:44:15;15.83;;;6.73;;
6564;SDS011;3316;44.118;27.258;2023-05-16T05:46:40;11.50;;;4.97;;
6564;SDS011;3316;44.118;27.258;2023-05-16T05:49:06;9.97;;;5.67;;
6564;SDS011;3316;44.118;27.258;2023-05-16T05:51:32;6.40;;;4.73;;
6564;SDS011;3316;44.118;27.258;2023-05-16T05:53:57;7.23;;;4.70;;
6564;SDS011;3316;44.118;27.258;2023-05-16T05:56:23;13.77;;;5.97;;
6564;SDS011;3316;44.118;27.258;2023-05-16T05:58:51;5.53;;;4.03;;
6564;SDS011;3316;44.118;27.258;2023-05-16T06:01:17;10.77;;;6.53;;
6564;SDS011;3316;44.118;27.258;2023-05-16T06:03:45;16.70;;;5.90;;
6564;SDS011;3316;44.118;27.258;2023-05-16T06:06:10;8.93;;;5.47;;
6564;SDS011;3316;44.118;27.258;2023-05-16T06:08:36;10.73;;;4.70;;
6564;SDS011;3316;44.118;27.258;2023-05-16T06:11:01;8.47;;;4.93;;
6564;SDS011;3316;44.118;27.258;2023-05-16T06:13:27;15.97;;;4.90;;
6564;SDS011;3316;44.118;27.258;2023-05-16T06:15:53;8.67;;;4.57;;
6564;SDS011;3316;44.118;27.258;2023-05-16T06:18:19;6.03;;;4.43;;
6564;SDS011;3316;44.118;27.258;2023-05-16T06:20:45;12.07;;;5.30;;
6564;SDS011;3316;44.118;27.258;2023-05-16T06:23:10;11.23;;;4.73;;
6564;SDS011;3316;44.118;27.258;2023-05-16T06:25:36;9.23;;;3.90;;
6564;SDS011;3316;44.118;27.258;2023-05-16T06:28:02;22.97;;;4.83;;
6564;SDS011;3316;44.118;27.258;2023-05-16T06:30:27;7.30;;;4.30;;
6564;SDS011;3316;44.118;27.258;2023-05-16T06:32:53;12.57;;;4.60;;
6564;SDS011;3316;44.118;27.258;2023-05-16T06:35:18;11.77;;;3.93;;
6564;SDS011;3316;44.118;27.258;2023-05-16T06:37:44;9.20;;;4.53;;
6564;SDS011;3316;44.118;27.258;2023-05-16T06:40:10;8.55;;;4.07;;
6564;SDS011;3316;44.118;27.258;2023-05-16T06:42:36;7.38;;;3.80;;
6564;SDS011;3316;44.118;27.258;2023-05-16T06:45:01;9.30;;;3.90;;
6564;SDS011;3316;44.118;27.258;2023-05-16T06:47:27;7.30;;;4.13;;
6564;SDS011;3316;44.118;27.258;2023-05-16T06:49:53;5.70;;;3.92;;
6564;SDS011;3316;44.118;27.258;2023-05-16T06:52:18;9.45;;;4.00;;
6564;SDS011;3316;44.118;27.258;2023-05-16T06:54:44;12.55;;;4.00;;
6564;SDS011;3316;44.118;27.258;2023-05-16T06:57:10;8.77;;;4.53;;
6564;SDS011;3316;44.118;27.258;2023-05-16T06:59:35;7.82;;;3.65;;
6564;SDS011;3316;44.118;27.258;2023-05-16T07:02:00;9.15;;;3.80;;
6564;SDS011;3316;44.118;27.258;2023-05-16T07:04:26;5.22;;;3.47;;
6564;SDS011;3316;44.118;27.258;2023-05-16T07:06:52;6.85;;;3.72;;
6564;SDS011;3316;44.118;27.258;2023-05-16T07:09:18;8.68;;;3.33;;
6564;SDS011;3316;44.118;27.258;2023-05-16T07:11:44;6.25;;;3.28;;
6564;SDS011;3316;44.118;27.258;2023-05-16T07:14:10;10.85;;;3.63;;
6564;SDS011;3316;44.118;27.258;2023-05-16T07:16:35;6.07;;;3.33;;
6564;SDS011;3316;44.118;27.258;2023-05-16T07:19:01;8.52;;;3.78;;
6564;SDS011;3316;44.118;27.258;2023-05-16T07:21:26;7.90;;;3.63;;
6564;SDS011;3316;44.118;27.258;2023-05-16T07:23:52;9.38;;;4.00;;
6564;SDS011;3316;44.118;27.258;2023-05-16T07:26:18;7.32;;;3.30;;
6564;SDS011;3316;44.118;27.258;2023-05-16T07:28:46;7.05;;;3.05;;
6564;SDS011;3316;44.118;27.258;2023-05-16T07:31:11;9.40;;;3.10;;
6564;SDS011;3316;44.118;27.258;2023-05-16T07:33:37;7.47;;;3.42;;
6564;SDS011;3316;44.118;27.258;2023-05-16T07:36:02;7.70;;;3.72;;
6564;SDS011;3316;44.118;27.258;2023-05-16T07:38:28;3.45;;;2.97;;
6564;SDS011;3316;44.118;27.258;2023-05-16T07:40:53;8.05;;;3.30;;
6564;SDS011;3316;44.118;27.258;2023-05-16T07:43:18;20.20;;;3.90;;
6564;SDS011;3316;44.118;27.258;2023-05-16T07:45:44;4.88;;;3.13;;
6564;SDS011;3316;44.118;27.258;2023-05-16T07:48:10;6.13;;;3.17;;
6564;SDS011;3316;44.118;27.258;2023-05-16T07:50:35;8.23;;;3.28;;
6564;SDS011;3316;44.118;27.258;2023-05-16T07:53:01;12.18;;;3.65;;
6564;SDS011;3316;44.118;27.258;2023-05-16T07:55:26;3.70;;;2.78;;
6564;SDS011;3316;44.118;27.258;2023-05-16T07:57:52;8.00;;;2.55;;
6564;SDS011;3316;44.118;27.258;2023-05-16T08:00:18;4.90;;;2.67;;
6564;SDS011;3316;44.118;27.258;2023-05-16T08:02:44;8.45;;;3.58;;
6564;SDS011;3316;44.118;27.258;2023-05-16T08:05:10;4.35;;;2.45;;
6564;SDS011;3316;44.118;27.258;2023-05-16T08:07:35;5.65;;;2.50;;
6564;SDS011;3316;44.118;27.258;2023-05-16T08:10:01;6.40;;;2.17;;
6564;SDS011;3316;44.118;27.258;2023-05-16T08:12:27;5.47;;;2.30;;
6564;SDS011;3316;44.118;27.258;2023-05-16T08:14:54;8.38;;;2.20;;
6564;SDS011;3316;44.118;27.258;2023-05-16T08:17:20;4.80;;;2.83;;
6564;SDS011;3316;44.118;27.258;2023-05-16T08:19:45;5.18;;;2.72;;
6564;SDS011;3316;44.118;27.258;2023-05-16T08:22:11;5.55;;;2.47;;
6564;SDS011;3316;44.118;27.258;2023-05-16T08:24:36;7.63;;;2.70;;
6564;SDS011;3316;44.118;27.258;2023-05-16T08:27:01;4.68;;;2.80;;
6564;SDS011;3316;44.118;27.258;2023-05-16T08:29:27;5.97;;;2.63;;
6564;SDS011;3316;44.118;27.258;2023-05-16T08:31:52;16.85;;;3.63;;
6564;SDS011;3316;44.118;27.258;2023-05-16T08:34:18;18.88;;;4.20;;
6564;SDS011;3316;44.118;27.258;2023-05-16T08:36:43;12.23;;;3.13;;
6564;SDS011;3316;44.118;27.258;2023-05-16T08:39:09;6.38;;;2.78;;
6564;SDS011;3316;44.118;27.258;2023-05-16T08:41:37;14.43;;;3.20;;
6564;SDS011;3316;44.118;27.258;2023-05-16T08:44:03;7.43;;;2.75;;
6564;SDS011;3316;44.118;27.258;2023-05-16T08:46:29;7.72;;;3.05;;
6564;SDS011;3316;44.118;27.258;2023-05-16T08:48:58;4.55;;;2.40;;
6564;SDS011;3316;44.118;27.258;2023-05-16T08:51:25;7.53;;;3.40;;
6564;SDS011;3316;44.118;27.258;2023-05-16T08:56:48;5.63;;;2.60;;
6564;SDS011;3316;44.118;27.258;2023-05-16T08:59:14;5.22;;;2.97;;
6564;SDS011;3316;44.118;27.258;2023-05-16T09:01:40;3.92;;;2.45;;
6564;SDS011;3316;44.118;27.258;2023-05-16T09:04:06;9.32;;;2.90;;
6564;SDS011;3316;44.118;27.258;2023-05-16T09:06:33;5.43;;;2.63;;
6564;SDS011;3316;44.118;27.258;2023-05-16T09:08:59;8.65;;;3.47;;
6564;SDS011;3316;44.118;27.258;2023-05-16T09:11:24;4.88;;;2.40;;
6564;SDS011;3316;44.118;27.258;2023-05-16T09:13:50;5.55;;;3.38;;
6564;SDS011;3316;44.118;27.258;2023-05-16T09:16:16;7.97;;;3.03;;
6564;SDS011;3316;44.118;27.258;2023-05-16T09:18:57;3.50;;;2.78;;
6564;SDS011;3316;44.118;27.258;2023-05-16T09:21:30;10.95;;;3.55;;
6564;SDS011;3316;44.118;27.258;2023-05-16T09:24:05;10.27;;;3.10;;
6564;SDS011;3316;44.118;27.258;2023-05-16T09:26:33;7.78;;;2.78;;
6564;SDS011;3316;44.118;27.258;2023-05-16T09:29:00;3.97;;;2.83;;
6564;SDS011;3316;44.118;27.258;2023-05-16T09:31:26;8.60;;;2.67;;
6564;SDS011;3316;44.118;27.258;2023-05-16T09:34:01;7.03;;;3.13;;
6564;SDS011;3316;44.118;27.258;2023-05-16T09:36:30;6.78;;;2.45;;
6564;SDS011;3316;44.118;27.258;2023-05-16T09:38:56;6.47;;;3.33;;
6564;SDS011;3316;44.118;27.258;2023-05-16T09:41:21;5.65;;;2.72;;
6564;SDS011;3316;44.118;27.258;2023-05-16T09:43:47;10.40;;;3.00;;
6564;SDS011;3316;44.118;27.258;2023-05-16T09:46:12;9.55;;;3.40;;
6564;SDS011;3316;44.118;27.258;2023-05-16T09:48:40;5.22;;;2.97;;
6564;SDS011;3316;44.118;27.258;2023-05-16T09:51:08;8.80;;;3.67;;
6564;SDS011;3316;44.118;27.258;2023-05-16T09:53:36;6.13;;;2.90;;
6564;SDS011;3316;44.118;27.258;2023-05-16T09:56:03;6.25;;;3.25;;
6564;SDS011;3316;44.118;27.258;2023-05-16T09:58:29;8.45;;;3.30;;
6564;SDS011;3316;44.118;27.258;2023-05-16T10:00:56;14.38;;;3.95;;
6564;SDS011;3316;44.118;27.258;2023-05-16T10:03:23;8.60;;;3.78;;
6564;SDS011;3316;44.118;27.258;2023-05-16T10:05:50;8.55;;;3.50;;
6564;SDS011;3316;44.118;27.258;2023-05-16T10:08:18;13.73;;;2.95;;
6564;SDS011;3316;44.118;27.258;2023-05-16T10:10:45;13.70;;;3.75;;
6564;SDS011;3316;44.118;27.258;2023-05-16T10:13:15;11.90;;;3.47;;
6564;SDS011;3316;44.118;27.258;2023-05-16T10:15:43;14.23;;;3.80;;
6564;SDS011;3316;44.118;27.258;2023-05-16T10:18:09;11.25;;;3.83;;
6564;SDS011;3316;44.118;27.258;2023-05-16T10:20:38;10.80;;;2.95;;
6564;SDS011;3316;44.118;27.258;2023-05-16T10:23:05;12.32;;;3.40;;
6564;SDS011;3316;44.118;27.258;2023-05-16T10:25:37;6.18;;;2.75;;
6564;SDS011;3316;44.118;27.258;2023-05-16T10:28:06;12.57;;;4.00;;
6564;SDS011;3316;44.118;27.258;2023-05-16T10:30:33;7.95;;;3.05;;
6564;SDS011;3316;44.118;27.258;2023-05-16T10:33:02;9.85;;;3.30;;
6564;SDS011;3316;44.118;27.258;2023-05-16T10:35:29;7.10;;;2.92;;
6564;SDS011;3316;44.118;27.258;2023-05-16T10:37:55;9.88;;;3.05;;
6564;SDS011;3316;44.118;27.258;2023-05-16T10:40:22;8.43;;;3.25;;
6564;SDS011;3316;44.118;27.258;2023-05-16T10:42:58;5.55;;;2.80;;
6564;SDS011;3316;44.118;27.258;2023-05-16T10:45:25;12.85;;;3.50;;
6564;SDS011;3316;44.118;27.258;2023-05-16T10:47:57;8.98;;;2.85;;
6564;SDS011;3316;44.118;27.258;2023-05-16T10:50:43;7.50;;;2.95;;
6564;SDS011;3316;44.118;27.258;2023-05-16T10:53:14;27.50;;;4.15;;
6564;SDS011;3316;44.118;27.258;2023-05-16T10:55:43;8.43;;;2.45;;
6564;SDS011;3316;44.118;27.258;2023-05-16T11:01:14;10.00;;;2.97;;
6564;SDS011;3316;44.118;27.258;2023-05-16T11:06:25;9.93;;;2.80;;
6564;SDS011;3316;44.118;27.258;2023-05-16T11:12:16;16.05;;;3.65;;
6564;SDS011;3316;44.118;27.258;2023-05-16T11:14:27;13.23;;;2.83;;
6564;SDS011;3316;44.118;27.258;2023-05-16T11:22:28;3.95;;;2.65;;
6564;SDS011;3316;44.118;27.258;2023-05-16T11:27:22;6.47;;;2.80;;
6564;SDS011;3316;44.118;27.258;2023-05-16T11:29:58;9.13;;;2.97;;
6564;SDS011;3316;44.118;27.258;2023-05-16T11:32:46;9.60;;;3.20;;
6564;SDS011;3316;44.118;27.258;2023-05-16T11:35:13;10.43;;;2.85;;
6564;SDS011;3316;44.118;27.258;2023-05-16T11:37:41;12.60;;;3.22;;
6564;SDS011;3316;44.118;27.258;2023-05-16T11:40:08;8.18;;;2.72;;
6564;SDS011;3316;44.118;27.258;2023-05-16T11:42:39;4.85;;;2.42;;
6564;SDS011;3316;44.118;27.258;2023-05-16T11:47:33;9.13;;;2.83;;
6564;SDS011;3316;44.118;27.258;2023-05-16T11:50:02;6.70;;;1.95;;
6564;SDS011;3316;44.118;27.258;2023-05-16T11:52:32;9.93;;;2.95;;
6564;SDS011;3316;44.118;27.258;2023-05-16T11:54:58;9.13;;;2.90;;
6564;SDS011;3316;44.118;27.258;2023-05-16T11:57:25;11.30;;;3.33;;
6564;SDS011;3316;44.118;27.258;2023-05-16T11:59:51;6.47;;;2.95;;
6564;SDS011;3316;44.118;27.258;2023-05-16T12:02:17;7.07;;;2.65;;
6564;SDS011;3316;44.118;27.258;2023-05-16T12:04:45;11.75;;;2.50;;
6564;SDS011;3316;44.118;27.258;2023-05-16T12:07:14;7.15;;;2.70;;
6564;SDS011;3316;44.118;27.258;2023-05-16T12:09:40;10.13;;;2.70;;
6564;SDS011;3316;44.118;27.258;2023-05-16T12:12:06;18.65;;;3.30;;
6564;SDS011;3316;44.118;27.258;2023-05-16T12:14:31;9.25;;;2.72;;
6564;SDS011;3316;44.118;27.258;2023-05-16T12:16:57;11.02;;;3.20;;
6564;SDS011;3316;44.118;27.258;2023-05-16T12:19:23;11.10;;;3.33;;
6564;SDS011;3316;44.118;27.258;2023-05-16T12:21:52;6.32;;;2.38;;
6564;SDS011;3316;44.118;27.258;2023-05-16T12:24:18;11.02;;;3.00;;
6564;SDS011;3316;44.118;27.258;2023-05-16T12:26:44;10.63;;;2.78;;
6564;SDS011;3316;44.118;27.258;2023-05-16T12:29:10;15.45;;;3.15;;
6564;SDS011;3316;44.118;27.258;2023-05-16T12:31:36;6.78;;;2.95;;
6564;SDS011;3316;44.118;27.258;2023-05-16T12:34:03;11.30;;;3.00;;
6564;SDS011;3316;44.118;27.258;2023-05-16T12:36:32;6.80;;;3.03;;
6564;SDS011;3316;44.118;27.258;2023-05-16T12:39:02;8.32;;;2.95;;
6564;SDS011;3316;44.118;27.258;2023-05-16T12:41:28;8.52;;;3.05;;
6564;SDS011;3316;44.118;27.258;2023-05-16T12:44:11;5.65;;;3.05;;
6564;SDS011;3316;44.118;27.258;2023-05-16T12:46:44;5.15;;;2.55;;
6564;SDS011;3316;44.118;27.258;2023-05-16T12:49:20;6.78;;;3.38;;
6564;SDS011;3316;44.118;27.258;2023-05-16T12:51:50;9.38;;;3.05;;
6564;SDS011;3316;44.118;27.258;2023-05-16T12:54:16;11.18;;;3.33;;
6564;SDS011;3316;44.118;27.258;2023-05-16T12:56:42;6.32;;;2.78;;
6564;SDS011;3316;44.118;27.258;2023-05-16T12:59:08;9.35;;;2.97;;
6564;SDS011;3316;44.118;27.258;2023-05-16T13:01:34;5.10;;;2.63;;
6564;SDS011;3316;44.118;27.258;2023-05-16T13:04:00;4.40;;;2.80;;
6564;SDS011;3316;44.118;27.258;2023-05-16T13:06:26;5.65;;;3.20;;
6564;SDS011;3316;44.118;27.258;2023-05-16T13:08:52;6.93;;;3.03;;
6564;SDS011;3316;44.118;27.258;2023-05-16T13:11:18;4.22;;;2.22;;
6564;SDS011;3316;44.118;27.258;2023-05-16T13:13:43;14.93;;;3.22;;
6564;SDS011;3316;44.118;27.258;2023-05-16T13:16:09;7.68;;;3.38;;
6564;SDS011;3316;44.118;27.258;2023-05-16T13:18:35;4.60;;;2.45;;
6564;SDS011;3316;44.118;27.258;2023-05-16T13:21:00;6.93;;;2.60;;
6564;SDS011;3316;44.118;27.258;2023-05-16T13:23:28;8.38;;;3.47;;
6564;SDS011;3316;44.118;27.258;2023-05-16T13:25:54;11.48;;;3.13;;
6564;SDS011;3316;44.118;27.258;2023-05-16T13:28:19;12.45;;;2.70;;
6564;SDS011;3316;44.118;27.258;2023-05-16T13:30:45;11.43;;;3.80;;
6564;SDS011;3316;44.118;27.258;2023-05-16T13:33:10;9.82;;;3.58;;
6564;SDS011;3316;44.118;27.258;2023-05-16T13:35:36;10.52;;;3.03;;
6564;SDS011;3316;44.118;27.258;2023-05-16T13:38:02;9.25;;;3.42;;
6564;SDS011;3316;44.118;27.258;2023-05-16T13:40:28;4.53;;;2.70;;
6564;SDS011;3316;44.118;27.258;2023-05-16T13:42:53;5.68;;;3.00;;
6564;SDS011;3316;44.118;27.258;2023-05-16T13:45:19;6.55;;;2.90;;
6564;SDS011;3316;44.118;27.258;2023-05-16T13:47:45;7.20;;;3.45;;
6564;SDS011;3316;44.118;27.258;2023-05-16T13:50:10;8.20;;;3.50;;
6564;SDS011;3316;44.118;27.258;2023-05-16T13:52:36;6.25;;;3.42;;
6564;SDS011;3316;44.118;27.258;2023-05-16T13:55:02;7.68;;;3.42;;
6564;SDS011;3316;44.118;27.258;2023-05-16T13:57:28;7.43;;;3.35;;
6564;SDS011;3316;44.118;27.258;2023-05-16T13:59:54;3.45;;;2.40;;
6564;SDS011;3316;44.118;27.258;2023-05-16T14:02:20;5.60;;;3.10;;
6564;SDS011;3316;44.118;27.258;2023-05-16T14:04:46;5.72;;;3.40;;
6564;SDS011;3316;44.118;27.258;2023-05-16T14:07:12;7.20;;;3.03;;
6564;SDS011;3316;44.118;27.258;2023-05-16T14:09:37;10.23;;;3.47;;
6564;SDS011;3316;44.118;27.258;2023-05-16T14:12:06;10.77;;;3.47;;
6564;SDS011;3316;44.118;27.258;2023-05-16T14:14:33;10.30;;;3.05;;
6564;SDS011;3316;44.118;27.258;2023-05-16T14:16:59;8.00;;;3.40;;
6564;SDS011;3316;44.118;27.258;2023-05-16T14:19:24;7.20;;;3.58;;
6564;SDS011;3316;44.118;27.258;2023-05-16T14:21:50;5.75;;;2.88;;
6564;SDS011;3316;44.118;27.258;2023-05-16T14:24:15;5.50;;;3.55;;
6564;SDS011;3316;44.118;27.258;2023-05-16T14:26:41;13.25;;;3.40;;
6564;SDS011;3316;44.118;27.258;2023-05-16T14:29:06;9.20;;;3.05;;
6564;SDS011;3316;44.118;27.258;2023-05-16T14:31:31;8.35;;;3.15;;
6564;SDS011;3316;44.118;27.258;2023-05-16T14:33:57;5.65;;;3.40;;
6564;SDS011;3316;44.118;27.258;2023-05-16T14:36:23;6.45;;;3.25;;
6564;SDS011;3316;44.118;27.258;2023-05-16T14:38:49;14.60;;;4.20;;
6564;SDS011;3316;44.118;27.258;2023-05-16T14:41:15;15.60;;;4.25;;
6564;SDS011;3316;44.118;27.258;2023-05-16T14:43:40;8.07;;;3.20;;
6564;SDS011;3316;44.118;27.258;2023-05-16T14:46:06;6.30;;;3.55;;
6564;SDS011;3316;44.118;27.258;2023-05-16T14:48:31;9.40;;;3.53;;
6564;SDS011;3316;44.118;27.258;2023-05-16T14:50:57;5.00;;;3.33;;
6564;SDS011;3316;44.118;27.258;2023-05-16T14:53:23;10.93;;;4.43;;
6564;SDS011;3316;44.118;27.258;2023-05-16T14:55:48;6.85;;;3.63;;
6564;SDS011;3316;44.118;27.258;2023-05-16T14:58:14;6.85;;;3.45;;
6564;SDS011;3316;44.118;27.258;2023-05-16T15:00:39;11.65;;;3.92;;
6564;SDS011;3316;44.118;27.258;2023-05-16T15:03:05;9.55;;;3.63;;
6564;SDS011;3316;44.118;27.258;2023-05-16T15:05:30;5.65;;;3.58;;
6564;SDS011;3316;44.118;27.258;2023-05-16T15:07:56;8.45;;;3.80;;
6564;SDS011;3316;44.118;27.258;2023-05-16T15:10:21;5.10;;;3.00;;
6564;SDS011;3316;44.118;27.258;2023-05-16T15:12:47;6.65;;;3.72;;
6564;SDS011;3316;44.118;27.258;2023-05-16T15:15:15;7.72;;;3.72;;
6564;SDS011;3316;44.118;27.258;2023-05-16T15:17:40;8.77;;;3.63;;
6564;SDS011;3316;44.118;27.258;2023-05-16T15:20:07;12.43;;;4.45;;
6564;SDS011;3316;44.118;27.258;2023-05-16T15:22:34;5.55;;;4.18;;